Time;durP1;ratioP1;P1;durP2;ratioP2;P2;SDS_P1;SDS_P2;PMS_P1;PMS_P2;Temp;Humidity;BMP_temperature;BMP_pressure;BME280_temperature;BME280_humidity;BME280_pressure;Samples;Min_cycle;Max_cycle;Signal;HPM_P1;HPM_P2
2023/06/04 00:01:32;;;;;;;1.60;1.50;;;;;;;;;;5054489;28;20207;-89
2023/06/04 00:03:59;;;;;;;1.48;1.38;;;;;;;;;;5050880;28;20231;-89
2023/06/04 00:06:26;;;;;;;1.58;1.40;;;;;;;;;;5054439;28;20207;-89
2023/06/04 00:08:53;;;;;;;1.40;1.30;;;;;;;;;;5055547;28;20206;-89
2023/06/04 00:11:20;;;;;;;2.88;1.40;;;;;;;;;;5050485;28;20283;-89
2023/06/04 00:13:49;;;;;;;2.65;1.52;;;;;;;;;;5047677;28;20314;-89
2023/06/04 00:16:16;;;;;;;2.05;1.40;;;;;;;;;;5050535;28;20211;-89
2023/06/04 00:18:44;;;;;;;1.55;1.45;;;;;;;;;;5050533;28;20231;-89
2023/06/04 00:21:11;;;;;;;2.70;1.63;;;;;;;;;;5041837;28;20222;-89
2023/06/04 00:23:38;;;;;;;2.25;1.58;;;;;;;;;;5053326;28;20215;-89
2023/06/04 00:26:06;;;;;;;2.15;1.40;;;;;;;;;;5050985;28;20227;-88
2023/06/04 00:28:33;;;;;;;2.08;1.50;;;;;;;;;;5051003;28;20203;-89
2023/06/04 00:31:01;;;;;;;1.52;1.42;;;;;;;;;;5052207;28;20195;-89
2023/06/04 00:33:29;;;;;;;2.28;1.40;;;;;;;;;;5050143;28;20242;-89
2023/06/04 00:35:56;;;;;;;2.90;1.73;;;;;;;;;;5054085;28;20238;-89
2023/06/04 00:38:23;;;;;;;2.35;1.55;;;;;;;;;;5048531;28;20200;-89
2023/06/04 00:40:50;;;;;;;1.70;1.25;;;;;;;;;;5051719;28;20286;-88
2023/06/04 00:43:18;;;;;;;2.63;1.70;;;;;;;;;;5047902;28;20234;-89
2023/06/04 00:45:46;;;;;;;1.65;1.40;;;;;;;;;;5051061;28;20230;-89
2023/06/04 00:48:14;;;;;;;2.08;1.30;;;;;;;;;;5049762;28;20231;-89
2023/06/04 00:50:41;;;;;;;1.67;1.42;;;;;;;;;;5053913;28;20208;-89
2023/06/04 00:53:09;;;;;;;2.28;1.50;;;;;;;;;;5049313;28;20204;-89
2023/06/04 00:55:36;;;;;;;1.58;1.48;;;;;;;;;;5053506;28;20208;-88
2023/06/04 00:58:04;;;;;;;2.47;1.88;;;;;;;;;;5051334;28;20200;-89
2023/06/04 01:00:31;;;;;;;1.58;1.40;;;;;;;;;;5052688;28;20226;-89
2023/06/04 01:03:02;;;;;;;2.08;1.50;;;;;;;;;;5046273;28;20199;-89
2023/06/04 01:05:36;;;;;;;1.63;1.20;;;;;;;;;;5051327;28;20286;-89
2023/06/04 01:08:04;;;;;;;1.60;1.50;;;;;;;;;;5050594;28;20203;-89
2023/06/04 01:10:31;;;;;;;2.65;1.50;;;;;;;;;;5048590;28;20208;-89
2023/06/04 01:12:58;;;;;;;3.30;1.80;;;;;;;;;;5047473;28;20286;-89
2023/06/04 01:15:27;;;;;;;1.40;1.30;;;;;;;;;;5041033;28;20204;-89
2023/06/04 01:18:03;;;;;;;1.95;1.50;;;;;;;;;;5043484;28;20212;-87
2023/06/04 01:20:34;;;;;;;2.33;1.50;;;;;;;;;;5050377;28;20215;-89
2023/06/04 01:23:14;;;;;;;2.60;1.40;;;;;;;;;;5043587;28;20231;-89
2023/06/04 01:25:43;;;;;;;2.53;1.60;;;;;;;;;;5049429;28;20203;-89
2023/06/04 01:28:12;;;;;;;1.70;1.60;;;;;;;;;;5048353;28;20207;-89
2023/06/04 01:30:43;;;;;;;2.25;1.25;;;;;;;;;;5053429;28;20274;-89
2023/06/04 01:33:10;;;;;;;1.90;1.50;;;;;;;;;;5053532;28;20203;-89
2023/06/04 01:35:39;;;;;;;1.88;1.50;;;;;;;;;;5046474;28;20196;-89
2023/06/04 01:38:06;;;;;;;2.22;1.30;;;;;;;;;;5052402;28;20211;-89
2023/06/04 01:40:34;;;;;;;1.83;1.65;;;;;;;;;;5052669;28;20230;-89
2023/06/04 01:43:01;;;;;;;1.88;1.30;;;;;;;;;;5050651;28;20204;-89
2023/06/04 01:45:29;;;;;;;1.40;1.30;;;;;;;;;;5056154;28;20196;-88
2023/06/04 01:47:56;;;;;;;1.95;1.38;;;;;;;;;;5053857;28;20274;-89
2023/06/04 01:50:24;;;;;;;1.40;1.30;;;;;;;;;;5044729;28;20226;-89
2023/06/04 01:52:52;;;;;;;1.30;1.20;;;;;;;;;;5049236;28;20227;-89
2023/06/04 01:55:19;;;;;;;3.42;1.30;;;;;;;;;;5038930;28;20295;-89
2023/06/04 01:57:48;;;;;;;2.17;1.50;;;;;;;;;;5053250;28;20295;-88
2023/06/04 02:00:15;;;;;;;2.28;1.30;;;;;;;;;;5052475;28;20207;-89
2023/06/04 02:02:43;;;;;;;4.40;1.40;;;;;;;;;;5050994;28;20207;-89
2023/06/04 02:05:11;;;;;;;3.17;1.40;;;;;;;;;;5048847;28;20427;-89
2023/06/04 02:07:38;;;;;;;3.70;1.90;;;;;;;;;;5049070;28;20211;-89
2023/06/04 02:10:08;;;;;;;1.60;1.40;;;;;;;;;;5048387;28;20206;-88
2023/06/04 02:12:38;;;;;;;1.98;1.30;;;;;;;;;;5044420;28;20200;-88
2023/06/04 02:15:06;;;;;;;1.40;1.30;;;;;;;;;;5049167;28;20295;-89
2023/06/04 02:17:37;;;;;;;3.35;1.50;;;;;;;;;;5052991;28;20234;-89
2023/06/04 02:20:05;;;;;;;3.08;1.23;;;;;;;;;;5046516;28;20251;-89
2023/06/04 02:22:32;;;;;;;1.77;1.17;;;;;;;;;;5051828;28;20207;-89
2023/06/04 02:25:00;;;;;;;2.35;1.42;;;;;;;;;;5047062;28;20223;-89
2023/06/04 02:27:28;;;;;;;1.80;1.50;;;;;;;;;;5051526;28;20195;-89
2023/06/04 02:29:56;;;;;;;2.47;1.35;;;;;;;;;;5049114;28;20210;-89
2023/06/04 02:32:23;;;;;;;1.52;1.40;;;;;;;;;;5047604;28;20283;-89
2023/06/04 02:34:50;;;;;;;2.03;1.30;;;;;;;;;;5048947;28;20282;-89
2023/06/04 02:37:17;;;;;;;2.05;1.40;;;;;;;;;;5048460;28;20287;-89
2023/06/04 02:39:45;;;;;;;2.47;1.50;;;;;;;;;;5045431;28;20203;-89
2023/06/04 02:42:12;;;;;;;2.30;1.30;;;;;;;;;;5040896;28;20291;-89
2023/06/04 02:44:40;;;;;;;2.33;1.38;;;;;;;;;;5050148;28;20215;-89
2023/06/04 02:47:08;;;;;;;2.60;1.35;;;;;;;;;;5048469;28;20275;-89
2023/06/04 02:49:35;;;;;;;3.63;1.40;;;;;;;;;;5050099;28;20238;-89
2023/06/04 02:52:02;;;;;;;1.10;1.10;;;;;;;;;;5049976;28;20286;-89
2023/06/04 02:54:30;;;;;;;1.42;1.33;;;;;;;;;;5050501;28;20241;-89
2023/06/04 02:56:57;;;;;;;3.75;1.58;;;;;;;;;;5049311;28;20228;-89
2023/06/04 02:59:25;;;;;;;3.40;1.30;;;;;;;;;;5043192;28;20287;-88
2023/06/04 03:01:53;;;;;;;1.98;1.58;;;;;;;;;;5052062;28;20204;-89
2023/06/04 03:04:21;;;;;;;1.75;1.27;;;;;;;;;;5042821;28;20216;-88
2023/06/04 03:06:52;;;;;;;2.83;1.52;;;;;;;;;;5050920;28;20231;-89
2023/06/04 03:09:19;;;;;;;1.65;1.30;;;;;;;;;;5049028;28;20262;-89
2023/06/04 03:11:47;;;;;;;1.65;1.40;;;;;;;;;;5052252;28;20259;-89
2023/06/04 03:14:14;;;;;;;2.90;1.52;;;;;;;;;;5051786;28;20207;-88
2023/06/04 03:16:42;;;;;;;3.67;1.50;;;;;;;;;;5053558;28;20231;-89
2023/06/04 03:19:11;;;;;;;1.50;1.30;;;;;;;;;;5046645;28;20239;-89
2023/06/04 03:21:39;;;;;;;1.40;1.30;;;;;;;;;;5040889;28;20208;-89
2023/06/04 03:24:06;;;;;;;2.10;1.50;;;;;;;;;;5048990;28;20220;-89
2023/06/04 03:26:34;;;;;;;1.58;1.48;;;;;;;;;;5055945;28;20306;-89
2023/06/04 03:29:01;;;;;;;1.80;1.50;;;;;;;;;;5054294;28;20196;-88
2023/06/04 03:31:28;;;;;;;2.65;1.35;;;;;;;;;;5054703;28;20223;-89
2023/06/04 03:33:55;;;;;;;4.03;1.88;;;;;;;;;;5050276;28;20203;-89
2023/06/04 03:36:31;;;;;;;1.83;1.48;;;;;;;;;;5055094;28;20210;-89
2023/06/04 03:38:58;;;;;;;1.58;1.48;;;;;;;;;;5053398;28;20298;-89
2023/06/04 03:41:26;;;;;;;1.58;1.48;;;;;;;;;;5053946;28;20203;-89
2023/06/04 03:43:53;;;;;;;1.92;1.38;;;;;;;;;;5052752;28;20199;-89
2023/06/04 03:46:21;;;;;;;1.30;1.20;;;;;;;;;;5049064;28;20223;-88
2023/06/04 03:48:48;;;;;;;2.78;1.55;;;;;;;;;;5047199;28;20291;-89
2023/06/04 03:51:15;;;;;;;1.55;1.35;;;;;;;;;;5047461;28;20200;-89
2023/06/04 03:53:44;;;;;;;1.88;1.60;;;;;;;;;;5054918;28;20295;-89
2023/06/04 03:56:11;;;;;;;1.95;1.40;;;;;;;;;;5041318;28;20255;-89
2023/06/04 03:58:39;;;;;;;3.70;1.40;;;;;;;;;;5050389;28;20207;-88
2023/06/04 04:01:06;;;;;;;1.40;1.30;;;;;;;;;;5046164;28;20282;-89
2023/06/04 04:03:35;;;;;;;1.40;1.30;;;;;;;;;;5053860;28;20195;-89
2023/06/04 04:06:02;;;;;;;1.50;1.30;;;;;;;;;;5046515;28;20273;-89
2023/06/04 04:08:31;;;;;;;2.47;1.52;;;;;;;;;;5050358;28;20196;-89
2023/06/04 04:11:00;;;;;;;1.50;1.40;;;;;;;;;;5048550;28;20290;-89
2023/06/04 04:13:27;;;;;;;3.83;1.65;;;;;;;;;;5052417;28;20272;-89
2023/06/04 04:15:54;;;;;;;3.03;1.48;;;;;;;;;;5051945;28;20207;-89
2023/06/04 04:18:22;;;;;;;2.78;1.42;;;;;;;;;;5046522;28;20243;-89
2023/06/04 04:20:49;;;;;;;1.67;1.35;;;;;;;;;;5050166;28;20259;-89
2023/06/04 04:23:16;;;;;;;2.60;1.60;;;;;;;;;;5051387;28;20310;-89
2023/06/04 04:25:44;;;;;;;3.45;1.55;;;;;;;;;;5049262;28;20223;-89
2023/06/04 04:28:13;;;;;;;2.90;1.52;;;;;;;;;;5048574;28;20229;-89
2023/06/04 04:30:41;;;;;;;2.20;1.23;;;;;;;;;;5049768;28;20196;-89
2023/06/04 04:33:10;;;;;;;3.75;1.60;;;;;;;;;;5047718;28;20238;-89
2023/06/04 04:35:37;;;;;;;3.50;1.30;;;;;;;;;;5048799;28;20203;-89
2023/06/04 04:38:04;;;;;;;2.65;1.65;;;;;;;;;;5053552;28;20211;-89
2023/06/04 04:40:32;;;;;;;1.77;1.42;;;;;;;;;;5048608;28;20204;-88
2023/06/04 04:42:59;;;;;;;1.60;1.42;;;;;;;;;;5050534;28;20295;-89
2023/06/04 04:45:31;;;;;;;3.72;1.80;;;;;;;;;;5046089;28;20224;-89
2023/06/04 04:47:58;;;;;;;1.60;1.42;;;;;;;;;;5047626;28;20208;-89
2023/06/04 04:50:25;;;;;;;2.80;1.40;;;;;;;;;;5050866;28;20286;-89
2023/06/04 04:52:52;;;;;;;2.20;1.60;;;;;;;;;;5052194;28;20199;-89
2023/06/04 04:55:20;;;;;;;1.95;1.40;;;;;;;;;;5048771;28;20291;-89
2023/06/04 04:57:47;;;;;;;1.33;1.23;;;;;;;;;;5048226;28;20306;-89
2023/06/04 05:00:15;;;;;;;1.73;1.40;;;;;;;;;;5051228;28;20267;-89
2023/06/04 05:02:44;;;;;;;2.28;1.40;;;;;;;;;;5050227;28;20283;-89
2023/06/04 05:05:12;;;;;;;2.33;1.60;;;;;;;;;;5046378;28;20306;-89
2023/06/04 05:07:39;;;;;;;1.38;1.27;;;;;;;;;;5051436;28;20199;-88
2023/06/04 05:10:08;;;;;;;2.38;1.50;;;;;;;;;;5046853;28;20204;-89
2023/06/04 05:12:35;;;;;;;3.17;1.50;;;;;;;;;;5046876;28;20204;-89
2023/06/04 05:15:03;;;;;;;2.92;1.30;;;;;;;;;;5047195;28;20263;-89
2023/06/04 05:17:30;;;;;;;1.80;1.50;;;;;;;;;;5054440;28;20204;-89
2023/06/04 05:20:11;;;;;;;1.48;1.30;;;;;;;;;;5052252;28;20234;-88
2023/06/04 05:22:38;;;;;;;1.63;1.17;;;;;;;;;;5044222;28;20291;-88
2023/06/04 05:25:08;;;;;;;1.80;1.20;;;;;;;;;;5047930;28;20255;-88
2023/06/04 05:27:35;;;;;;;2.50;1.40;;;;;;;;;;5049022;28;20200;-88
2023/06/04 05:30:03;;;;;;;4.55;1.48;;;;;;;;;;5052006;28;20203;-89
2023/06/04 05:32:32;;;;;;;1.52;1.40;;;;;;;;;;5051440;28;20199;-89
2023/06/04 05:35:04;;;;;;;3.15;1.35;;;;;;;;;;5054322;28;20210;-88
2023/06/04 05:37:34;;;;;;;1.55;1.40;;;;;;;;;;5053052;28;20207;-89
2023/06/04 05:40:03;;;;;;;1.50;1.20;;;;;;;;;;5051263;28;20271;-88
2023/06/04 05:42:30;;;;;;;1.60;1.40;;;;;;;;;;5050372;28;20222;-89
2023/06/04 05:44:57;;;;;;;2.65;1.50;;;;;;;;;;5045141;28;20298;-88
2023/06/04 05:47:24;;;;;;;2.30;1.30;;;;;;;;;;5043534;28;20295;-89
2023/06/04 05:49:52;;;;;;;1.50;1.40;;;;;;;;;;5046343;28;20282;-89
2023/06/04 05:52:20;;;;;;;4.13;1.50;;;;;;;;;;5050794;28;20202;-89
2023/06/04 05:54:48;;;;;;;2.78;1.48;;;;;;;;;;5045522;28;20203;-89
2023/06/04 05:57:15;;;;;;;1.38;1.27;;;;;;;;;;5053270;28;20210;-89
2023/06/04 05:59:43;;;;;;;1.35;1.23;;;;;;;;;;5053620;28;20286;-88
2023/06/04 06:02:10;;;;;;;1.75;1.40;;;;;;;;;;5049364;28;20211;-88
2023/06/04 06:04:37;;;;;;;2.90;1.30;;;;;;;;;;5052544;28;20214;-89
2023/06/04 06:07:05;;;;;;;1.55;1.25;;;;;;;;;;5050181;28;20253;-89
2023/06/04 06:09:34;;;;;;;2.13;1.40;;;;;;;;;;5048664;28;20235;-88
2023/06/04 06:12:01;;;;;;;1.80;1.38;;;;;;;;;;5047975;28;20263;-89
2023/06/04 06:14:28;;;;;;;2.38;1.67;;;;;;;;;;5051582;28;20199;-88
2023/06/04 06:16:56;;;;;;;1.77;1.50;;;;;;;;;;5046168;28;20238;-89
2023/06/04 06:19:24;;;;;;;1.38;1.27;;;;;;;;;;5048653;28;20235;-89
2023/06/04 06:21:51;;;;;;;1.58;1.30;;;;;;;;;;5052297;28;20200;-89
2023/06/04 06:24:19;;;;;;;1.88;1.30;;;;;;;;;;5052693;28;20275;-89
2023/06/04 06:26:47;;;;;;;3.33;1.40;;;;;;;;;;5048759;28;20235;-88
2023/06/04 06:29:15;;;;;;;2.55;1.40;;;;;;;;;;5043004;28;20291;-88
2023/06/04 06:31:42;;;;;;;1.65;1.38;;;;;;;;;;5053477;28;20195;-89
2023/06/04 06:34:09;;;;;;;3.20;1.52;;;;;;;;;;5050435;28;20290;-89
2023/06/04 06:36:36;;;;;;;2.63;1.42;;;;;;;;;;5046871;28;20214;-89
2023/06/04 06:39:04;;;;;;;1.75;1.30;;;;;;;;;;5044284;28;20204;-89
2023/06/04 06:41:31;;;;;;;3.83;1.50;;;;;;;;;;5044631;28;20199;-88
2023/06/04 06:44:00;;;;;;;4.72;1.60;;;;;;;;;;5053018;28;20195;-89
2023/06/04 06:46:27;;;;;;;1.33;1.23;;;;;;;;;;5041126;28;20232;-89
2023/06/04 06:48:54;;;;;;;1.73;1.40;;;;;;;;;;5052329;28;20191;-89
2023/06/04 06:51:21;;;;;;;5.13;1.40;;;;;;;;;;5048284;28;20208;-89
2023/06/04 06:53:50;;;;;;;2.50;1.50;;;;;;;;;;5045785;28;20203;-88
2023/06/04 06:56:18;;;;;;;1.38;1.20;;;;;;;;;;5045586;28;20210;-88
2023/06/04 06:58:45;;;;;;;2.88;1.30;;;;;;;;;;5048374;28;20223;-89
2023/06/04 07:01:14;;;;;;;2.67;1.50;;;;;;;;;;5050918;28;20207;-89
2023/06/04 07:03:41;;;;;;;1.85;1.50;;;;;;;;;;5048033;28;20257;-89
2023/06/04 07:06:08;;;;;;;1.77;1.30;;;;;;;;;;5049360;28;20253;-89
2023/06/04 07:08:36;;;;;;;3.90;1.13;;;;;;;;;;5047177;28;20282;-88
2023/06/04 07:11:04;;;;;;;3.50;1.40;;;;;;;;;;5053437;28;20211;-89
2023/06/04 07:13:33;;;;;;;1.40;1.30;;;;;;;;;;5042685;28;20302;-90
2023/06/04 07:16:00;;;;;;;1.38;1.17;;;;;;;;;;5047048;28;20222;-89
2023/06/04 07:18:29;;;;;;;1.38;1.27;;;;;;;;;;5052202;28;20238;-88
2023/06/04 07:20:56;;;;;;;1.90;1.10;;;;;;;;;;5049988;28;20231;-89
2023/06/04 07:23:24;;;;;;;2.97;1.38;;;;;;;;;;5047354;28;20231;-88
2023/06/04 07:25:51;;;;;;;3.00;1.50;;;;;;;;;;5051975;28;20225;-88
2023/06/04 07:28:18;;;;;;;1.67;1.40;;;;;;;;;;5048460;28;20283;-89
2023/06/04 07:30:46;;;;;;;2.10;1.30;;;;;;;;;;5060123;28;20218;-88
2023/06/04 07:33:14;;;;;;;1.40;1.30;;;;;;;;;;5047635;28;20231;-88
2023/06/04 07:35:42;;;;;;;2.15;1.20;;;;;;;;;;5055156;28;20199;-87
2023/06/04 07:38:10;;;;;;;4.70;1.40;;;;;;;;;;5053759;28;20207;-88
2023/06/04 07:40:37;;;;;;;3.03;1.42;;;;;;;;;;5056892;28;20216;-88
2023/06/04 07:43:04;;;;;;;2.30;1.30;;;;;;;;;;5050827;28;20200;-88
2023/06/04 07:45:31;;;;;;;2.50;1.20;;;;;;;;;;5057175;28;20207;-88
2023/06/04 07:47:58;;;;;;;5.25;1.40;;;;;;;;;;5056332;28;20282;-90
2023/06/04 07:50:26;;;;;;;1.90;1.10;;;;;;;;;;5056352;28;20271;-88
2023/06/04 07:52:55;;;;;;;1.65;1.30;;;;;;;;;;5056426;28;20210;-88
2023/06/04 07:55:22;;;;;;;1.25;1.15;;;;;;;;;;5048495;28;20234;-89
2023/06/04 07:57:49;;;;;;;1.67;1.40;;;;;;;;;;5050666;28;20291;-89
2023/06/04 08:00:17;;;;;;;3.58;1.40;;;;;;;;;;5051103;28;20271;-89
2023/06/04 08:02:45;;;;;;;1.77;1.25;;;;;;;;;;5047825;28;20200;-89
2023/06/04 08:05:13;;;;;;;1.33;1.23;;;;;;;;;;5054627;28;20210;-89
2023/06/04 08:07:41;;;;;;;2.45;1.30;;;;;;;;;;5056084;28;20214;-90
2023/06/04 08:10:10;;;;;;;2.35;1.20;;;;;;;;;;5050450;28;20294;-89
2023/06/04 08:12:38;;;;;;;1.95;1.40;;;;;;;;;;5052326;28;20294;-89
2023/06/04 08:15:05;;;;;;;1.60;1.27;;;;;;;;;;5048528;28;20294;-88
2023/06/04 08:17:33;;;;;;;3.05;1.33;;;;;;;;;;5054693;28;20263;-89
2023/06/04 08:20:00;;;;;;;3.70;1.30;;;;;;;;;;5045112;28;20291;-90
2023/06/04 08:22:29;;;;;;;2.08;1.60;;;;;;;;;;5048135;28;20200;-90
2023/06/04 08:24:56;;;;;;;3.42;1.38;;;;;;;;;;5043875;28;20208;-90
2023/06/04 08:27:25;;;;;;;1.95;1.40;;;;;;;;;;5054194;28;20322;-89
2023/06/04 08:29:53;;;;;;;1.85;1.50;;;;;;;;;;5051525;28;20204;-90
2023/06/04 08:32:20;;;;;;;1.90;1.33;;;;;;;;;;5043615;28;20208;-90
2023/06/04 08:34:47;;;;;;;1.92;1.35;;;;;;;;;;5049676;28;20259;-90
2023/06/04 08:37:15;;;;;;;1.77;1.33;;;;;;;;;;5051809;28;20213;-90
2023/06/04 08:39:42;;;;;;;3.58;1.50;;;;;;;;;;5054879;28;20199;-90
2023/06/04 08:42:15;;;;;;;2.58;1.20;;;;;;;;;;5049285;28;20215;-91
2023/06/04 08:44:44;;;;;;;1.85;1.33;;;;;;;;;;5051018;28;20208;-91
2023/06/04 08:47:15;;;;;;;2.13;1.55;;;;;;;;;;5050016;28;20228;-92
2023/06/04 08:49:45;;;;;;;1.42;1.30;;;;;;;;;;5050008;28;20203;-90
2023/06/04 08:52:12;;;;;;;1.75;1.45;;;;;;;;;;5043641;28;20215;-93
2023/06/04 08:54:40;;;;;;;2.58;1.25;;;;;;;;;;5044886;28;20207;-93
2023/06/04 08:57:08;;;;;;;3.83;1.30;;;;;;;;;;5045942;28;20291;-89
2023/06/04 08:59:35;;;;;;;2.05;1.30;;;;;;;;;;5043973;28;20323;-90
2023/06/04 09:02:04;;;;;;;2.92;1.40;;;;;;;;;;5045148;28;20291;-89
2023/06/04 09:04:32;;;;;;;1.40;1.30;;;;;;;;;;5048676;28;20203;-88
2023/06/04 09:07:02;;;;;;;2.13;1.38;;;;;;;;;;5051243;28;20313;-90
2023/06/04 09:09:30;;;;;;;2.60;1.33;;;;;;;;;;5048826;28;20199;-91
2023/06/04 09:11:58;;;;;;;1.50;1.40;;;;;;;;;;5042753;28;20314;-91
2023/06/04 09:14:26;;;;;;;1.77;1.40;;;;;;;;;;5043626;28;20278;-90
2023/06/04 09:16:54;;;;;;;1.85;1.42;;;;;;;;;;5055595;28;20207;-90
2023/06/04 09:19:24;;;;;;;1.50;1.40;;;;;;;;;;5047276;28;20234;-90
2023/06/04 09:21:51;;;;;;;1.25;1.15;;;;;;;;;;5051012;28;20226;-90
2023/06/04 09:24:19;;;;;;;1.85;1.30;;;;;;;;;;5040558;28;20211;-90
2023/06/04 09:26:46;;;;;;;1.42;1.33;;;;;;;;;;5037816;28;20251;-90
2023/06/04 09:29:13;;;;;;;2.90;1.50;;;;;;;;;;5050040;28;20215;-90
2023/06/04 09:31:41;;;;;;;1.90;1.35;;;;;;;;;;5034511;28;20210;-90
2023/06/04 09:34:08;;;;;;;2.47;1.27;;;;;;;;;;5047217;28;20294;-90
2023/06/04 09:36:38;;;;;;;1.98;1.38;;;;;;;;;;5048523;28;20233;-90
2023/06/04 09:39:16;;;;;;;1.70;1.20;;;;;;;;;;5045823;28;20195;-89
2023/06/04 09:41:43;;;;;;;1.30;1.20;;;;;;;;;;5048089;28;20203;-90
2023/06/04 09:44:12;;;;;;;2.40;1.33;;;;;;;;;;5048149;28;20207;-89
2023/06/04 09:46:39;;;;;;;1.35;1.25;;;;;;;;;;5045218;28;20281;-89
2023/06/04 09:49:07;;;;;;;1.80;1.70;;;;;;;;;;5048351;28;20223;-90
2023/06/04 09:51:34;;;;;;;2.22;1.40;;;;;;;;;;5048729;28;20212;-89
2023/06/04 09:54:04;;;;;;;2.38;1.20;;;;;;;;;;5049816;28;20286;-90
2023/06/04 09:56:40;;;;;;;5.13;1.48;;;;;;;;;;5035008;28;20235;-90
2023/06/04 09:59:09;;;;;;;3.65;1.48;;;;;;;;;;5045764;28;20290;-89
2023/06/04 10:01:40;;;;;;;2.70;1.40;;;;;;;;;;5040407;28;20243;-90
2023/06/04 10:04:09;;;;;;;4.28;1.20;;;;;;;;;;5051853;28;20214;-89
2023/06/04 10:06:36;;;;;;;3.20;1.52;;;;;;;;;;5049652;28;20215;-90
2023/06/04 10:09:07;;;;;;;1.75;1.38;;;;;;;;;;5044968;28;20247;-90
2023/06/04 10:11:36;;;;;;;1.70;1.60;;;;;;;;;;5043315;28;20214;-89
2023/06/04 10:14:05;;;;;;;1.98;1.20;;;;;;;;;;5043002;28;20204;-90
2023/06/04 10:16:32;;;;;;;1.60;1.50;;;;;;;;;;5047733;28;20199;-89
2023/06/04 10:19:00;;;;;;;3.45;1.50;;;;;;;;;;5050909;28;20227;-90
2023/06/04 10:21:29;;;;;;;1.30;1.20;;;;;;;;;;5040110;28;20208;-90
2023/06/04 10:23:56;;;;;;;4.72;1.42;;;;;;;;;;5052856;28;20195;-89
2023/06/04 10:26:25;;;;;;;1.48;1.30;;;;;;;;;;5048039;28;20212;-89
2023/06/04 10:28:52;;;;;;;1.20;1.20;;;;;;;;;;5044983;28;20263;-89
2023/06/04 10:31:20;;;;;;;2.40;1.40;;;;;;;;;;5047234;28;20196;-90
2023/06/04 10:33:47;;;;;;;2.08;1.60;;;;;;;;;;5046507;28;20213;-89
2023/06/04 10:36:18;;;;;;;2.83;1.52;;;;;;;;;;5036296;28;20286;-89
2023/06/04 10:38:48;;;;;;;2.25;1.40;;;;;;;;;;5050024;28;20215;-89
2023/06/04 10:41:16;;;;;;;1.45;1.35;;;;;;;;;;5040815;28;20214;-89
2023/06/04 10:43:46;;;;;;;2.67;1.42;;;;;;;;;;5048581;28;20204;-89
2023/06/04 10:46:14;;;;;;;1.92;1.30;;;;;;;;;;5047847;28;20275;-89
2023/06/04 10:48:48;;;;;;;1.65;1.38;;;;;;;;;;5050720;28;20207;-92
2023/06/04 10:51:16;;;;;;;1.25;1.20;;;;;;;;;;5050169;28;20204;-91
2023/06/04 10:53:43;;;;;;;1.50;1.40;;;;;;;;;;5047429;28;20211;-91
2023/06/04 10:56:11;;;;;;;3.65;1.40;;;;;;;;;;5049312;28;20203;-92
2023/06/04 10:58:38;;;;;;;2.92;1.50;;;;;;;;;;5038737;28;20218;-93
2023/06/04 11:01:06;;;;;;;1.40;1.30;;;;;;;;;;5048014;28;20259;-93
2023/06/04 11:03:37;;;;;;;1.85;1.33;;;;;;;;;;5052815;28;20239;-91
2023/06/04 11:06:04;;;;;;;3.40;1.40;;;;;;;;;;5049804;28;20204;-91
2023/06/04 11:08:31;;;;;;;2.92;1.55;;;;;;;;;;5048120;28;20207;-91
2023/06/04 11:10:59;;;;;;;3.13;1.40;;;;;;;;;;5053235;28;20290;-92
2023/06/04 11:13:26;;;;;;;1.85;1.38;;;;;;;;;;5048213;28;20290;-93
2023/06/04 11:15:53;;;;;;;2.40;1.38;;;;;;;;;;5053496;28;20218;-92
2023/06/04 11:18:23;;;;;;;4.15;1.38;;;;;;;;;;5046692;28;20254;-92
2023/06/04 11:20:52;;;;;;;1.48;1.35;;;;;;;;;;5043531;28;20210;-92
2023/06/04 11:23:19;;;;;;;1.80;1.30;;;;;;;;;;5038034;28;20215;-92
2023/06/04 11:25:46;;;;;;;1.45;1.35;;;;;;;;;;5036373;28;20203;-93
2023/06/04 11:28:17;;;;;;;2.83;1.50;;;;;;;;;;5044762;28;20233;-93
2023/06/04 11:30:45;;;;;;;1.90;1.40;;;;;;;;;;5052191;28;20214;-93
2023/06/04 11:33:12;;;;;;;2.47;1.55;;;;;;;;;;5049022;28;20203;-93
2023/06/04 11:35:44;;;;;;;2.47;1.70;;;;;;;;;;5051324;28;20250;-93
2023/06/04 11:38:11;;;;;;;1.45;1.35;;;;;;;;;;5048109;28;20291;-93
2023/06/04 11:40:39;;;;;;;2.30;1.40;;;;;;;;;;5050667;28;20192;-93
2023/06/04 11:43:07;;;;;;;4.72;1.58;;;;;;;;;;5038682;28;20278;-93
2023/06/04 11:45:34;;;;;;;2.33;1.50;;;;;;;;;;5049403;28;20196;-93
2023/06/04 11:48:01;;;;;;;2.42;1.50;;;;;;;;;;5050703;28;20212;-93
2023/06/04 11:50:29;;;;;;;2.92;1.75;;;;;;;;;;5047359;28;20286;-93
2023/06/04 11:52:58;;;;;;;1.58;1.40;;;;;;;;;;5050566;28;20298;-93
2023/06/04 11:55:25;;;;;;;2.47;1.73;;;;;;;;;;5055520;28;20203;-93
2023/06/04 11:57:53;;;;;;;1.75;1.27;;;;;;;;;;5054876;28;20274;-93
2023/06/04 12:00:21;;;;;;;2.40;1.30;;;;;;;;;;5052398;28;20235;-94
2023/06/04 12:02:52;;;;;;;1.75;1.58;;;;;;;;;;5050724;28;20204;-92
2023/06/04 12:05:20;;;;;;;2.88;1.50;;;;;;;;;;5047375;28;20218;-93
2023/06/04 12:07:50;;;;;;;3.17;1.48;;;;;;;;;;5033500;28;20224;-95
2023/06/04 12:10:19;;;;;;;1.70;1.55;;;;;;;;;;5053539;28;20207;-92
2023/06/04 12:12:46;;;;;;;1.65;1.55;;;;;;;;;;5051757;28;20263;-91
2023/06/04 12:15:20;;;;;;;2.03;1.58;;;;;;;;;;5050092;28;20310;-93
2023/06/04 12:17:54;;;;;;;1.65;1.50;;;;;;;;;;5048037;28;20200;-91
2023/06/04 12:20:33;;;;;;;1.73;1.40;;;;;;;;;;5056275;28;20238;-92
2023/06/04 12:23:00;;;;;;;2.58;1.55;;;;;;;;;;5078365;22;20227;-63
2023/06/04 12:25:30;;;;;;;4.07;1.67;;;;;;;;;;5045790;28;20207;-64
2023/06/04 12:27:57;;;;;;;2.53;1.55;;;;;;;;;;5048958;28;20305;-63
2023/06/04 12:30:25;;;;;;;2.15;1.50;;;;;;;;;;5046018;28;20208;-63
2023/06/04 12:32:52;;;;;;;1.70;1.60;;;;;;;;;;5046014;28;20207;-63
2023/06/04 12:35:19;;;;;;;2.60;1.50;;;;;;;;;;5048537;28;20210;-63
2023/06/04 12:37:46;;;;;;;1.50;1.40;;;;;;;;;;5049111;28;20333;-63
2023/06/04 12:40:13;;;;;;;6.05;1.70;;;;;;;;;;5042234;28;20200;-63
2023/06/04 12:42:42;;;;;;;3.38;1.80;;;;;;;;;;5050170;28;20284;-63
2023/06/04 12:45:11;;;;;;;3.08;1.63;;;;;;;;;;5052647;28;20215;-65
2023/06/04 12:47:38;;;;;;;2.72;1.48;;;;;;;;;;5042267;28;20230;-63
2023/06/04 12:50:05;;;;;;;5.18;1.75;;;;;;;;;;5044426;28;20207;-63
2023/06/04 12:52:33;;;;;;;3.70;1.77;;;;;;;;;;5044088;28;20208;-64
2023/06/04 12:55:00;;;;;;;2.60;1.80;;;;;;;;;;5045393;28;20232;-63
2023/06/04 12:57:27;;;;;;;1.80;1.70;;;;;;;;;;5044473;28;20203;-63
2023/06/04 12:59:57;;;;;;;4.63;1.67;;;;;;;;;;5044504;28;20204;-64
2023/06/04 13:02:24;;;;;;;3.15;1.60;;;;;;;;;;5045362;28;20201;-63
2023/06/04 13:04:54;;;;;;;2.47;1.40;;;;;;;;;;5049225;28;20211;-69
2023/06/04 13:07:21;;;;;;;2.95;1.70;;;;;;;;;;5045191;28;20250;-69
2023/06/04 13:09:48;;;;;;;1.70;1.60;;;;;;;;;;5049732;28;20243;-72
2023/06/04 13:12:15;;;;;;;2.40;1.80;;;;;;;;;;5051732;28;20199;-70
2023/06/04 13:14:43;;;;;;;1.40;1.30;;;;;;;;;;5043054;28;20201;-70
2023/06/04 13:17:11;;;;;;;3.33;1.83;;;;;;;;;;5043517;28;20215;-69
2023/06/04 13:19:38;;;;;;;3.00;1.73;;;;;;;;;;5045274;28;20214;-70
2023/06/04 13:22:06;;;;;;;3.25;1.85;;;;;;;;;;5051329;28;20204;-69
2023/06/04 13:24:33;;;;;;;1.80;1.70;;;;;;;;;;5044571;28;20227;-70
2023/06/04 13:27:00;;;;;;;3.33;1.42;;;;;;;;;;5046045;28;20202;-70
2023/06/04 13:29:27;;;;;;;1.70;1.60;;;;;;;;;;5045469;28;20208;-69
2023/06/04 13:31:54;;;;;;;1.73;1.63;;;;;;;;;;5045741;28;20219;-71
2023/06/04 13:34:23;;;;;;;4.13;1.98;;;;;;;;;;5047072;28;20211;-69
2023/06/04 13:36:50;;;;;;;2.55;1.90;;;;;;;;;;5043794;28;20200;-71
2023/06/04 13:39:17;;;;;;;3.65;1.70;;;;;;;;;;5047223;28;20207;-71
2023/06/04 13:41:44;;;;;;;2.05;1.60;;;;;;;;;;5039429;28;20208;-70
2023/06/04 13:44:11;;;;;;;2.47;1.80;;;;;;;;;;5044898;28;20206;-72
2023/06/04 13:46:39;;;;;;;2.15;1.90;;;;;;;;;;5048006;28;20211;-71
2023/06/04 13:49:06;;;;;;;1.98;1.75;;;;;;;;;;5043479;28;20231;-70
2023/06/04 13:51:34;;;;;;;2.70;1.75;;;;;;;;;;5038271;28;20207;-70
2023/06/04 13:54:02;;;;;;;1.85;1.52;;;;;;;;;;5047527;28;20283;-71
2023/06/04 13:56:29;;;;;;;2.58;1.60;;;;;;;;;;5039459;28;20211;-71
2023/06/04 13:58:56;;;;;;;4.32;1.80;;;;;;;;;;5043139;28;20308;-71
2023/06/04 14:01:23;;;;;;;2.65;1.60;;;;;;;;;;5045215;28;20206;-71
2023/06/04 14:03:51;;;;;;;2.08;1.50;;;;;;;;;;5039605;28;20211;-71
2023/06/04 14:06:18;;;;;;;2.22;1.80;;;;;;;;;;5039379;28;20254;-71
2023/06/04 14:08:47;;;;;;;2.20;1.90;;;;;;;;;;5039443;28;20231;-72
2023/06/04 14:11:14;;;;;;;3.60;1.77;;;;;;;;;;5037932;28;20219;-71
2023/06/04 14:13:44;;;;;;;2.58;1.65;;;;;;;;;;5039557;28;20212;-71
2023/06/04 14:16:12;;;;;;;4.45;1.58;;;;;;;;;;5037747;28;20275;-71
2023/06/04 14:18:39;;;;;;;1.85;1.60;;;;;;;;;;5037138;28;20210;-71
2023/06/04 14:21:06;;;;;;;2.20;1.70;;;;;;;;;;5038604;28;20225;-71
2023/06/04 14:23:33;;;;;;;4.13;1.92;;;;;;;;;;5044823;28;20262;-70
2023/06/04 14:26:02;;;;;;;2.70;1.80;;;;;;;;;;5042395;28;20200;-70
2023/06/04 14:28:29;;;;;;;2.08;1.83;;;;;;;;;;5038967;28;20227;-72
2023/06/04 14:30:57;;;;;;;4.68;1.95;;;;;;;;;;5040409;28;20218;-71
2023/06/04 14:33:24;;;;;;;2.50;1.60;;;;;;;;;;5041440;28;20202;-69
2023/06/04 14:35:51;;;;;;;1.80;1.65;;;;;;;;;;5040392;28;20211;-70
2023/06/04 14:38:19;;;;;;;3.78;2.05;;;;;;;;;;5038704;28;20203;-70
2023/06/04 14:40:46;;;;;;;1.85;1.75;;;;;;;;;;5041201;28;20211;-72
2023/06/04 14:43:14;;;;;;;3.17;1.80;;;;;;;;;;5036836;28;20203;-71
2023/06/04 14:45:42;;;;;;;2.00;1.80;;;;;;;;;;5039038;28;20210;-72
2023/06/04 14:48:09;;;;;;;1.90;1.80;;;;;;;;;;5040970;28;20227;-70